createdAt,value
2017-09-07T00:00:17.568Z,13.60
2017-09-07T00:02:45.043Z,13.60
2017-09-07T00:05:18.614Z,13.70
2017-09-07T00:07:47.100Z,13.80
2017-09-07T00:10:14.556Z,13.80
2017-09-07T00:12:42.773Z,13.80
2017-09-07T00:15:10.267Z,13.80
2017-09-07T00:17:38.496Z,13.90
2017-09-07T00:20:06.043Z,13.80
2017-09-07T00:22:33.700Z,13.90
2017-09-07T00:25:01.962Z,13.90
2017-09-07T00:27:30.179Z,13.90
2017-09-07T00:29:57.859Z,13.90
2017-09-07T00:32:25.403Z,13.90
2017-09-07T00:34:52.948Z,13.90
2017-09-07T00:37:20.415Z,13.80
2017-09-07T00:39:47.932Z,13.90
2017-09-07T00:42:16.160Z,13.90
2017-09-07T00:44:43.736Z,13.90
2017-09-07T00:47:11.996Z,13.90
2017-09-07T00:49:39.531Z,13.80
2017-09-07T00:52:07.088Z,13.90
2017-09-07T00:54:35.348Z,13.80
2017-09-07T00:57:02.796Z,13.80
2017-09-07T00:59:31.052Z,13.90
2017-09-07T01:01:59.263Z,13.90
2017-09-07T01:04:26.749Z,13.80
2017-09-07T01:06:55.213Z,13.90
2017-09-07T01:09:23.473Z,13.90
2017-09-07T01:11:50.932Z,13.90
2017-09-07T01:14:19.195Z,13.90
2017-09-07T01:16:47.432Z,13.80
2017-09-07T01:19:14.976Z,13.80
2017-09-07T01:21:42.432Z,13.90
2017-09-07T01:24:10.653Z,13.80
2017-09-07T01:26:38.111Z,13.80
2017-09-07T01:29:05.575Z,13.90
2017-09-07T01:31:33.896Z,13.90
2017-09-07T01:34:01.351Z,13.90
2017-09-07T01:36:28.802Z,13.90
2017-09-07T01:38:56.353Z,13.90
2017-09-07T01:41:24.607Z,13.80
2017-09-07T01:43:52.060Z,13.80
2017-09-07T01:46:20.312Z,13.90
2017-09-07T01:48:48.534Z,13.80
2017-09-07T01:51:15.984Z,13.80
2017-09-07T01:53:43.555Z,13.80
2017-09-07T01:56:11.815Z,13.70
2017-09-07T01:58:40.041Z,13.70
2017-09-07T02:01:07.625Z,13.70
2017-09-07T02:03:35.847Z,13.70
2017-09-07T02:06:03.324Z,13.60
2017-09-07T02:08:31.588Z,13.70
2017-09-07T02:10:59.840Z,13.70
2017-09-07T02:13:28.208Z,13.60
2017-09-07T02:15:55.651Z,13.60
2017-09-07T02:18:23.872Z,13.70
2017-09-07T02:20:51.449Z,13.70
2017-09-07T02:23:19.708Z,13.70
2017-09-07T02:25:47.930Z,13.80
2017-09-07T02:28:15.388Z,13.80
2017-09-07T02:30:43.389Z,13.80
2017-09-07T02:33:10.857Z,13.80
2017-09-07T02:35:38.312Z,13.70
2017-09-07T02:38:05.893Z,13.80
2017-09-07T02:40:34.118Z,13.70
2017-09-07T02:43:01.572Z,13.70
2017-09-07T02:45:29.232Z,13.70
2017-09-07T02:47:56.685Z,13.70
2017-09-07T02:50:24.946Z,13.60
2017-09-07T02:52:53.201Z,13.70
2017-09-07T02:55:21.460Z,13.60
2017-09-07T02:57:48.912Z,13.60
2017-09-07T03:00:17.260Z,13.60
2017-09-07T03:02:45.524Z,13.60
2017-09-07T03:05:13.783Z,13.50
2017-09-07T03:07:42.247Z,13.60
2017-09-07T03:10:09.700Z,13.60
2017-09-07T03:12:38.007Z,13.60
2017-09-07T03:15:05.468Z,13.60
2017-09-07T03:17:32.940Z,13.60
2017-09-07T03:20:01.195Z,13.70
2017-09-07T03:22:29.420Z,13.70
2017-09-07T03:24:56.876Z,13.70
2017-09-07T03:27:24.368Z,13.70
2017-09-07T03:29:51.819Z,13.70
2017-09-07T03:32:19.378Z,13.70
2017-09-07T03:34:46.838Z,13.70
2017-09-07T03:37:14.299Z,13.60
2017-09-07T03:39:41.748Z,13.70
2017-09-07T03:42:10.013Z,13.70
2017-09-07T03:44:37.488Z,13.70
2017-09-07T03:47:04.994Z,13.70
2017-09-07T03:49:32.536Z,13.70
2017-09-07T03:51:59.996Z,13.60
2017-09-07T03:54:28.211Z,13.70
2017-09-07T03:56:55.887Z,13.70
2017-09-07T03:59:24.244Z,13.70
2017-09-07T04:01:51.790Z,13.60
2017-09-07T04:04:19.390Z,13.60
2017-09-07T04:06:46.836Z,13.60
2017-09-07T04:09:14.320Z,13.60
2017-09-07T04:11:42.576Z,13.60
2017-09-07T04:14:10.795Z,13.50
2017-09-07T04:16:38.284Z,13.50
2017-09-07T04:19:06.539Z,13.50
2017-09-07T04:21:35.988Z,13.40
2017-09-07T04:24:03.469Z,13.40
2017-09-07T04:26:30.917Z,13.40
2017-09-07T04:28:59.168Z,13.40
2017-09-07T04:31:26.623Z,13.40
2017-09-07T04:33:54.856Z,13.40
2017-09-07T04:36:22.412Z,13.40
2017-09-07T04:38:49.956Z,13.40
2017-09-07T04:41:17.416Z,13.40
2017-09-07T04:43:45.865Z,13.50
2017-09-07T04:46:13.403Z,13.50
2017-09-07T04:48:40.952Z,13.50
2017-09-07T04:51:09.424Z,13.40
2017-09-07T04:53:37.649Z,13.30
2017-09-07T04:56:05.131Z,13.30
2017-09-07T04:58:33.579Z,13.40
2017-09-07T05:01:01.032Z,13.40
2017-09-07T05:03:29.284Z,13.40
2017-09-07T05:05:57.091Z,13.30
2017-09-07T05:08:24.575Z,13.30
2017-09-07T05:10:52.802Z,13.40
2017-09-07T05:13:20.336Z,13.40
2017-09-07T05:15:47.784Z,13.40
2017-09-07T05:18:15.264Z,13.50
2017-09-07T05:20:43.266Z,13.50
2017-09-07T05:23:10.860Z,13.50
2017-09-07T05:25:39.125Z,13.50
2017-09-07T05:28:07.392Z,13.60
2017-09-07T05:30:35.639Z,13.60
2017-09-07T05:33:03.092Z,13.60
2017-09-07T05:35:31.548Z,13.70
2017-09-07T05:37:59.092Z,13.70
2017-09-07T05:40:27.311Z,13.70
2017-09-07T05:42:54.795Z,13.70
2017-09-07T05:45:23.016Z,13.80
2017-09-07T05:47:50.491Z,13.70
2017-09-07T05:50:18.751Z,13.80
2017-09-07T05:52:46.296Z,13.80
2017-09-07T05:55:13.768Z,13.80
2017-09-07T05:57:41.284Z,13.80
2017-09-07T06:00:09.509Z,13.90
2017-09-07T06:02:37.191Z,13.80
2017-09-07T06:05:04.641Z,13.90
2017-09-07T06:07:32.860Z,14.00
2017-09-07T06:10:00.349Z,14.00
2017-09-07T06:12:28.649Z,13.90
2017-09-07T06:14:56.099Z,13.90
2017-09-07T06:17:23.576Z,13.90
2017-09-07T06:19:51.028Z,13.90
2017-09-07T06:22:19.436Z,13.90
2017-09-07T06:24:46.883Z,13.90
2017-09-07T06:27:14.365Z,14.00
2017-09-07T06:29:42.625Z,14.10
2017-09-07T06:32:10.887Z,14.10
2017-09-07T06:34:38.355Z,14.10
2017-09-07T06:37:05.821Z,14.20
2017-09-07T06:39:33.383Z,14.20
2017-09-07T06:42:01.743Z,14.20
2017-09-07T06:44:29.971Z,14.30
2017-09-07T06:46:57.451Z,14.30
2017-09-07T06:49:25.872Z,14.50
2017-09-07T06:51:53.327Z,14.50
2017-09-07T06:54:20.792Z,14.60
2017-09-07T06:56:48.539Z,14.60
2017-09-07T06:59:15.992Z,14.70
2017-09-07T07:01:44.221Z,14.70
2017-09-07T07:04:11.694Z,14.60
2017-09-07T07:06:39.944Z,14.60
2017-09-07T07:09:08.168Z,14.60
2017-09-07T07:11:35.753Z,14.60
2017-09-07T07:14:03.971Z,14.70
2017-09-07T07:16:31.457Z,14.70
2017-09-07T07:18:59.716Z,14.90
2017-09-07T07:21:27.972Z,15.00
2017-09-07T07:23:55.424Z,15.00
2017-09-07T07:26:23.648Z,15.10
2017-09-07T07:28:51.111Z,15.10
2017-09-07T07:31:19.337Z,15.10
2017-09-07T07:33:47.012Z,15.10
2017-09-07T07:36:14.471Z,15.20
2017-09-07T07:38:42.715Z,15.40
2017-09-07T07:41:10.260Z,15.40
2017-09-07T07:43:38.488Z,15.30
2017-09-07T07:46:05.976Z,15.30
2017-09-07T07:48:34.197Z,15.20
2017-09-07T07:51:01.668Z,15.20
2017-09-07T07:53:29.936Z,15.20
2017-09-07T07:55:58.182Z,15.30
2017-09-07T07:58:25.724Z,15.30
2017-09-07T08:00:53.371Z,15.30
2017-09-07T08:03:21.628Z,15.30
2017-09-07T08:05:49.085Z,15.30
2017-09-07T08:13:59.159Z,15.60
2017-09-07T08:19:17.123Z,15.60
2017-09-07T08:21:44.576Z,15.90
2017-09-07T08:24:12.831Z,16.00
2017-09-07T08:26:41.193Z,16.10
2017-09-07T08:29:08.656Z,16.10
2017-09-07T08:31:36.896Z,16.30
2017-09-07T08:34:04.541Z,16.30
2017-09-07T08:36:32.084Z,16.40
2017-09-07T08:38:59.540Z,16.50
2017-09-07T08:41:27.792Z,16.50
2017-09-07T08:43:56.009Z,16.60
2017-09-07T08:46:23.460Z,16.60
2017-09-07T08:48:50.920Z,16.60
2017-09-07T08:51:19.148Z,16.90
2017-09-07T08:53:46.600Z,16.90
2017-09-07T08:56:14.276Z,17.00
2017-09-07T08:58:41.735Z,16.90
2017-09-07T09:01:09.961Z,16.90
2017-09-07T09:03:37.521Z,16.90
2017-09-07T09:06:04.975Z,16.90
2017-09-07T09:08:33.227Z,17.30
2017-09-07T09:11:01.484Z,17.50
2017-09-07T09:13:29.708Z,17.70
2017-09-07T09:15:57.156Z,17.70
2017-09-07T09:18:24.623Z,17.80
2017-09-07T09:20:52.267Z,17.90
2017-09-07T09:23:19.767Z,18.20
2017-09-07T09:25:47.212Z,18.20
2017-09-07T09:28:14.904Z,18.10
2017-09-07T09:30:42.364Z,18.10
2017-09-07T09:33:10.600Z,18.10
2017-09-07T09:35:38.052Z,18.10
2017-09-07T09:38:06.304Z,18.20
2017-09-07T09:40:34.771Z,18.40
2017-09-07T09:43:03.024Z,18.50
2017-09-07T09:45:30.449Z,18.40
2017-09-07T09:47:58.116Z,18.50
2017-09-07T09:50:25.660Z,18.40
2017-09-07T09:52:53.120Z,18.40
2017-09-07T09:55:21.563Z,17.80
2017-09-07T09:57:49.012Z,17.80
2017-09-07T10:00:17.233Z,17.60
2017-09-07T10:02:44.811Z,17.60
2017-09-07T10:05:13.073Z,17.30
2017-09-07T10:07:41.307Z,17.20
2017-09-07T10:10:08.872Z,17.20
2017-09-07T10:12:36.416Z,17.30
2017-09-07T10:15:04.639Z,17.70
2017-09-07T10:17:32.238Z,17.70
2017-09-07T10:20:00.495Z,18.40
2017-09-07T10:22:28.748Z,18.60
2017-09-07T10:24:57.003Z,18.90
2017-09-07T10:27:24.553Z,18.90
2017-09-07T10:29:52.004Z,19.10
2017-09-07T10:32:20.452Z,18.90
2017-09-07T10:34:47.921Z,18.90
2017-09-07T10:37:15.464Z,18.80
2017-09-07T10:39:43.683Z,19.00
2017-09-07T10:42:11.135Z,19.00
2017-09-07T10:44:38.607Z,19.10
2017-09-07T10:47:06.150Z,19.00
2017-09-07T10:49:34.416Z,18.50
2017-09-07T10:52:02.682Z,18.40
2017-09-07T10:54:30.936Z,18.20
2017-09-07T10:56:59.152Z,18.00
2017-09-07T10:59:26.640Z,18.00
2017-09-07T11:01:54.898Z,17.90
2017-09-07T11:04:23.116Z,17.80
2017-09-07T11:06:50.755Z,17.80
2017-09-07T11:09:18.245Z,17.90
2017-09-07T11:11:45.782Z,18.00
2017-09-07T11:14:13.328Z,17.90
2017-09-07T11:16:41.588Z,18.20
2017-09-07T11:19:10.031Z,18.40
2017-09-07T11:21:37.488Z,18.30
2017-09-07T11:24:05.036Z,18.60
2017-09-07T11:26:32.536Z,18.90
2017-09-07T11:29:00.024Z,19.00
2017-09-07T11:31:27.564Z,19.20
2017-09-07T11:33:55.024Z,19.30
2017-09-07T11:36:22.475Z,19.50
2017-09-07T11:38:50.040Z,19.80
2017-09-07T11:41:17.578Z,20.20
2017-09-07T11:43:45.835Z,20.10
2017-09-07T11:46:13.380Z,20.10
2017-09-07T11:48:40.835Z,19.80
2017-09-07T11:51:09.083Z,19.50
2017-09-07T11:53:36.628Z,19.50
2017-09-07T11:56:04.872Z,19.00
2017-09-07T11:58:32.429Z,18.90
2017-09-07T12:01:00.695Z,19.60
2017-09-07T12:03:28.935Z,21.20
2017-09-07T12:05:56.391Z,21.10
2017-09-07T12:08:24.652Z,22.30
2017-09-07T12:10:52.143Z,22.20
2017-09-07T12:13:19.640Z,22.00
2017-09-07T12:15:47.898Z,21.10
2017-09-07T12:18:15.436Z,21.00
2017-09-07T12:20:42.925Z,20.60
2017-09-07T12:23:10.373Z,20.10
2017-09-07T12:25:37.821Z,19.80
2017-09-07T12:28:05.410Z,19.30
2017-09-07T12:30:33.625Z,19.20
2017-09-07T12:33:01.123Z,19.20
2017-09-07T12:35:29.493Z,19.20
2017-09-07T12:37:57.735Z,19.30
2017-09-07T12:40:25.272Z,19.30
2017-09-07T12:42:53.021Z,19.50
2017-09-07T12:45:20.564Z,19.80
2017-09-07T12:47:48.105Z,20.90
2017-09-07T12:50:15.852Z,22.00
2017-09-07T12:52:43.399Z,21.80
2017-09-07T12:55:10.944Z,21.60
2017-09-07T12:57:39.410Z,21.80
2017-09-07T13:00:06.948Z,21.70
2017-09-07T13:02:34.409Z,21.40
2017-09-07T13:05:02.656Z,20.20
2017-09-07T13:07:30.936Z,20.10
2017-09-07T13:09:58.383Z,20.10
2017-09-07T13:12:26.008Z,20.00
2017-09-07T13:14:54.231Z,19.70
2017-09-07T13:17:21.676Z,19.70
2017-09-07T13:19:49.144Z,19.80
2017-09-07T13:22:16.691Z,20.10
2017-09-07T13:24:44.944Z,21.30
2017-09-07T13:27:12.410Z,21.20
2017-09-07T13:29:40.626Z,23.90
2017-09-07T13:32:08.075Z,23.90
2017-09-07T13:34:35.732Z,24.10
2017-09-07T13:37:03.287Z,24.00
2017-09-07T13:39:31.504Z,23.60
2017-09-07T13:41:58.991Z,23.60
2017-09-07T13:44:27.209Z,22.40
2017-09-07T13:46:54.655Z,22.30
2017-09-07T13:49:22.229Z,21.70
2017-09-07T13:51:50.444Z,21.90
2017-09-07T13:54:17.892Z,21.90
2017-09-07T13:56:45.464Z,22.30
2017-09-07T13:59:13.012Z,23.10
2017-09-07T14:01:40.551Z,23.10
2017-09-07T14:04:08.196Z,23.10
2017-09-07T14:06:35.644Z,22.80
2017-09-07T14:09:03.877Z,22.00
2017-09-07T14:11:31.547Z,21.90
2017-09-07T14:13:59.001Z,21.70
2017-09-07T14:16:27.253Z,21.50
2017-09-07T14:18:54.735Z,21.50
2017-09-07T14:21:22.188Z,21.30
2017-09-07T14:23:49.676Z,21.20
2017-09-07T14:26:17.210Z,21.20
2017-09-07T14:28:44.765Z,21.00
2017-09-07T14:31:12.216Z,21.00
2017-09-07T14:33:40.459Z,22.40
2017-09-07T14:36:07.908Z,22.40
2017-09-07T14:38:36.123Z,24.00
2017-09-07T14:41:03.618Z,24.00
2017-09-07T14:43:31.068Z,24.10
2017-09-07T14:45:59.285Z,23.90
2017-09-07T14:48:27.158Z,23.90
2017-09-07T14:50:54.700Z,23.30
2017-09-07T14:53:22.244Z,22.80
2017-09-07T14:55:49.965Z,22.60
2017-09-07T14:58:18.256Z,22.10
2017-09-07T15:00:45.796Z,22.10
2017-09-07T15:03:13.439Z,22.00
2017-09-07T15:05:40.988Z,22.10
2017-09-07T15:08:08.524Z,22.40
2017-09-07T15:10:36.096Z,22.70
2017-09-07T15:13:04.334Z,22.20
2017-09-07T15:15:32.109Z,22.20
2017-09-07T15:18:00.316Z,22.00
2017-09-07T15:20:27.792Z,22.00
2017-09-07T15:22:56.248Z,22.40
2017-09-07T15:25:23.787Z,22.40
2017-09-07T15:27:51.332Z,22.10
2017-09-07T15:30:18.825Z,22.10
2017-09-07T15:32:46.284Z,22.70
2017-09-07T15:35:13.728Z,22.90
2017-09-07T15:37:41.200Z,23.00
2017-09-07T15:40:08.740Z,22.60
2017-09-07T15:42:36.285Z,22.00
2017-09-07T15:45:03.974Z,21.80
2017-09-07T15:47:31.471Z,21.90
2017-09-07T15:49:58.924Z,21.50
2017-09-07T15:52:27.393Z,21.40
2017-09-07T15:54:55.645Z,21.40
2017-09-07T15:57:23.174Z,21.40
2017-09-07T15:59:50.728Z,21.20
2017-09-07T16:02:18.277Z,21.10
2017-09-07T16:04:46.532Z,20.80
2017-09-07T16:07:14.035Z,20.80
2017-09-07T16:09:41.516Z,20.70
2017-09-07T16:12:08.973Z,20.40
2017-09-07T16:14:37.432Z,20.20
2017-09-07T16:17:05.685Z,19.80
2017-09-07T16:19:33.901Z,19.50
2017-09-07T16:22:01.597Z,19.50
2017-09-07T16:24:29.846Z,19.50
2017-09-07T16:26:57.359Z,19.50
2017-09-07T16:29:25.001Z,19.80
2017-09-07T16:31:52.474Z,20.20
2017-09-07T16:34:20.688Z,20.50
2017-09-07T16:36:48.226Z,20.50
2017-09-07T16:39:15.680Z,20.50
2017-09-07T16:41:43.196Z,20.50
2017-09-07T16:44:14.295Z,20.30
2017-09-07T16:46:41.909Z,20.20
2017-09-07T16:49:10.629Z,20.00
2017-09-07T16:51:38.405Z,19.90
2017-09-07T16:54:05.952Z,19.70
2017-09-07T16:56:33.510Z,19.50
2017-09-07T16:59:01.968Z,19.30
2017-09-07T17:01:30.193Z,19.30
2017-09-07T17:03:57.649Z,19.20
2017-09-07T17:06:25.123Z,19.20
2017-09-07T17:08:53.340Z,19.20
2017-09-07T17:11:20.808Z,19.20
2017-09-07T17:13:49.279Z,19.00
2017-09-07T17:16:17.749Z,19.00
2017-09-07T17:18:45.966Z,19.00
2017-09-07T17:21:13.547Z,19.00
2017-09-07T17:23:41.805Z,18.90
2017-09-07T17:26:10.028Z,18.80
2017-09-07T17:28:37.708Z,18.80
2017-09-07T17:31:05.153Z,18.80
2017-09-07T17:33:33.367Z,18.80
2017-09-07T17:36:00.928Z,18.80
2017-09-07T17:38:28.376Z,18.80
2017-09-07T17:40:56.651Z,18.70
2017-09-07T17:43:24.112Z,18.70
2017-09-07T17:45:52.351Z,18.80
2017-09-07T17:48:19.800Z,18.80
2017-09-07T17:50:48.152Z,18.70
2017-09-07T17:53:15.696Z,18.70
2017-09-07T17:55:43.157Z,18.60
2017-09-07T17:58:10.615Z,18.60
2017-09-07T18:00:38.073Z,18.50
2017-09-07T18:03:05.617Z,18.50
2017-09-07T18:05:33.977Z,18.50
2017-09-07T18:08:02.890Z,18.50
2017-09-07T18:10:30.345Z,18.50
2017-09-07T18:12:57.824Z,18.50
2017-09-07T18:15:25.291Z,18.60
2017-09-07T18:17:52.739Z,18.60
2017-09-07T18:20:20.497Z,18.50
2017-09-07T18:22:47.935Z,18.60
2017-09-07T18:25:15.396Z,18.60
2017-09-07T18:27:43.024Z,18.70
2017-09-07T18:30:10.476Z,18.60
2017-09-07T18:32:37.954Z,18.60
2017-09-07T18:35:05.429Z,18.50
2017-09-07T18:37:32.872Z,18.40
2017-09-07T18:40:00.351Z,18.40
2017-09-07T18:42:27.816Z,18.30
2017-09-07T18:44:55.264Z,18.30
2017-09-07T18:47:23.524Z,18.20
2017-09-07T18:49:51.784Z,18.10
2017-09-07T18:52:19.231Z,18.10
2017-09-07T18:54:46.854Z,18.10
2017-09-07T18:57:14.415Z,18.00
2017-09-07T18:59:41.863Z,17.90
2017-09-07T19:02:10.167Z,17.80
2017-09-07T19:04:37.655Z,17.70
2017-09-07T19:07:05.924Z,17.50
2017-09-07T19:09:33.468Z,17.50
2017-09-07T19:12:01.706Z,17.50
2017-09-07T19:14:29.159Z,17.50
2017-09-07T19:16:56.616Z,17.40
2017-09-07T19:19:24.872Z,17.30
2017-09-07T19:21:52.437Z,17.20
2017-09-07T19:24:20.704Z,17.20
2017-09-07T19:26:48.433Z,17.20
2017-09-07T19:29:16.664Z,17.00
2017-09-07T19:31:44.157Z,17.00
2017-09-07T19:34:11.672Z,17.00
2017-09-07T19:36:39.212Z,17.00
2017-09-07T19:39:07.436Z,16.80
2017-09-07T19:44:08.596Z,16.80
2017-09-07T19:46:36.852Z,16.80
2017-09-07T19:49:04.401Z,16.80
2017-09-07T19:51:32.056Z,16.70
2017-09-07T19:53:59.517Z,16.60
2017-09-07T19:56:27.744Z,16.50
2017-09-07T19:58:55.208Z,16.50
2017-09-07T20:01:23.423Z,16.50
2017-09-07T20:03:51.109Z,16.50
2017-09-07T20:06:19.358Z,16.50
2017-09-07T20:08:47.580Z,16.50
2017-09-07T20:11:15.265Z,16.50
2017-09-07T20:13:42.720Z,16.40
2017-09-07T20:16:10.944Z,16.40
2017-09-07T20:18:38.412Z,16.40
2017-09-07T20:21:06.668Z,16.30
2017-09-07T20:23:35.137Z,16.30
2017-09-07T20:26:02.631Z,16.30
2017-09-07T20:28:30.851Z,16.30
2017-09-07T20:30:58.320Z,16.30
2017-09-07T20:33:25.880Z,16.30
2017-09-07T20:35:54.104Z,16.40
2017-09-07T20:38:21.580Z,16.40
2017-09-07T20:40:49.812Z,16.40
2017-09-07T20:43:20.220Z,16.40
2017-09-07T20:45:47.687Z,16.40
2017-09-07T20:48:15.952Z,16.40
2017-09-07T20:50:44.182Z,16.40
2017-09-07T20:53:11.639Z,16.40
2017-09-07T20:55:39.188Z,16.30
2017-09-07T20:58:07.105Z,16.40
2017-09-07T21:00:35.112Z,16.40
2017-09-07T21:03:02.730Z,16.40
2017-09-07T21:05:30.301Z,16.40
2017-09-07T21:07:57.760Z,16.40
2017-09-07T21:10:33.225Z,16.20
2017-09-07T21:13:01.452Z,16.20
2017-09-07T21:15:36.321Z,16.10
2017-09-07T21:18:03.914Z,16.10
2017-09-07T21:20:31.384Z,16.10
2017-09-07T21:22:59.108Z,16.00
2017-09-07T21:25:26.584Z,16.00
2017-09-07T21:27:54.813Z,15.80
2017-09-07T21:30:22.376Z,15.80
2017-09-07T21:32:49.931Z,15.80
2017-09-07T21:35:18.377Z,15.80
2017-09-07T21:37:45.831Z,15.80
2017-09-07T21:40:14.061Z,15.80
2017-09-07T21:42:41.626Z,15.80
2017-09-07T21:45:09.084Z,15.80
2017-09-07T21:47:37.308Z,15.70
2017-09-07T21:50:04.976Z,15.70
2017-09-07T21:52:32.444Z,15.70
2017-09-07T21:54:59.956Z,15.70
2017-09-07T21:57:28.420Z,15.60
2017-09-07T21:59:55.944Z,15.60
2017-09-07T22:02:24.204Z,15.50
2017-09-07T22:04:52.492Z,15.40
2017-09-07T22:07:19.951Z,15.40
2017-09-07T22:09:47.408Z,15.40
2017-09-07T22:12:14.989Z,15.40
2017-09-07T22:14:43.212Z,15.50
2017-09-07T22:17:10.677Z,15.50
2017-09-07T22:19:38.932Z,15.50
2017-09-07T22:22:06.921Z,15.50
2017-09-07T22:24:35.197Z,15.50
2017-09-07T22:27:02.652Z,15.50
2017-09-07T22:29:30.208Z,15.40
2017-09-07T22:31:58.471Z,15.40
2017-09-07T22:34:26.695Z,15.40
2017-09-07T22:36:54.164Z,15.40
2017-09-07T22:39:22.408Z,15.40
2017-09-07T22:41:49.972Z,15.30
2017-09-07T22:44:18.372Z,15.30
2017-09-07T22:46:45.836Z,15.30
2017-09-07T22:49:13.324Z,15.30
2017-09-07T22:51:40.863Z,15.30
2017-09-07T22:54:09.132Z,15.30
2017-09-07T22:56:37.356Z,15.30
2017-09-07T22:59:04.860Z,15.30
2017-09-07T23:01:32.372Z,15.30
2017-09-07T23:04:00.632Z,15.20
2017-09-07T23:06:28.856Z,15.20
2017-09-07T23:08:56.318Z,15.20
2017-09-07T23:11:23.813Z,15.20
2017-09-07T23:13:51.275Z,15.20
2017-09-07T23:16:18.741Z,15.10
2017-09-07T23:18:46.406Z,15.10
2017-09-07T23:21:14.664Z,15.00
2017-09-07T23:23:42.932Z,15.00
2017-09-07T23:26:11.184Z,15.00
2017-09-07T23:28:39.450Z,15.00
2017-09-07T23:31:07.848Z,15.10
2017-09-07T23:33:35.363Z,15.00
2017-09-07T23:36:03.612Z,15.00
2017-09-07T23:38:31.861Z,15.00
2017-09-07T23:40:59.399Z,15.00
2017-09-07T23:43:26.940Z,15.00
2017-09-07T23:45:54.403Z,15.00
2017-09-07T23:48:22.624Z,15.10
2017-09-07T23:50:50.097Z,15.10
2017-09-07T23:53:18.360Z,15.10
2017-09-07T23:55:46.583Z,15.10
2017-09-07T23:58:14.196Z,15.10
